Forest Lakes, Arizona
Current Conditions -  °F | °C
As of 11:15 AM on Thursday 27 Nov 2014 (Local Time) from KSOW Reporting Station
Clear Clear  
Wind Chill: 52°   Ceiling: Unl
Heat Index: 52°   Visibility: 10mi
Dew Point: 18°   Wind: 5mph
Humidity: 26%   Direction: 20°NNE
Pressure: 30.48"   Gusts: NA
Location:  34.43°N, 110.6°W
Report Text: KSOW 271815Z AUTO 02004KT 10SM CLR 11/M08 A3048 RMK AO2
Loading
Personal Weather Stations






























Interactive Weather Map New forecast layout! Learn more

10-Day Weather Forecast

Advertisements
Track Severe Weather on mobile